Time;durP1;ratioP1;P1;durP2;ratioP2;P2;SDS_P1;SDS_P2;PMS_P1;PMS_P2;Temp;Humidity;BMP_temperature;BMP_pressure;BME280_temperature;BME280_humidity;BME280_pressure;Samples;Min_cycle;Max_cycle;Signal;HPM_P1;HPM_P2
2023/03/30 00:00:12;;;;;;;20.67;18.57;;;10.00;99.90;;;;;;4985468;28;21204;-68
2023/03/30 00:02:42;;;;;;;20.00;17.97;;;10.00;99.90;;;;;;4987072;28;20523;-69
2023/03/30 00:05:12;;;;;;;21.20;19.00;;;10.00;99.90;;;;;;4982880;28;20512;-69
2023/03/30 00:07:42;;;;;;;18.10;16.40;;;10.00;99.90;;;;;;4985780;28;20469;-68
2023/03/30 00:10:11;;;;;;;20.47;18.37;;;10.00;99.90;;;;;;4976485;28;20512;-69
2023/03/30 00:12:39;;;;;;;20.43;18.43;;;10.00;99.90;;;;;;4983593;28;20488;-68
2023/03/30 00:15:09;;;;;;;18.87;17.07;;;10.00;99.90;;;;;;4985370;28;20476;-69
2023/03/30 00:17:37;;;;;;;20.47;18.37;;;10.00;99.90;;;;;;4983375;28;20465;-69
2023/03/30 00:20:10;;;;;;;20.10;18.00;;;10.00;99.90;;;;;;4983039;28;20525;-69
2023/03/30 00:22:41;;;;;;;20.00;17.93;;;10.00;99.90;;;;;;4985895;28;20867;-67
2023/03/30 00:25:11;;;;;;;20.67;18.67;;;10.00;99.90;;;;;;4982210;28;21008;-68
2023/03/30 00:27:39;;;;;;;20.60;18.50;;;10.00;99.90;;;;;;4988167;28;20548;-68
2023/03/30 00:30:11;;;;;;;19.80;17.83;;;10.00;99.90;;;;;;4985372;28;20531;-70
2023/03/30 00:32:39;;;;;;;20.40;18.40;;;9.90;99.90;;;;;;4986271;28;20504;-69
2023/03/30 00:35:08;;;;;;;20.00;18.03;;;9.90;99.90;;;;;;4988344;28;20477;-68
2023/03/30 00:37:37;;;;;;;20.37;18.37;;;10.00;99.90;;;;;;4982108;28;20477;-70
2023/03/30 00:40:13;;;;;;;19.70;17.60;;;9.90;99.90;;;;;;4983540;28;20892;-70
2023/03/30 00:42:41;;;;;;;20.87;18.77;;;9.90;99.90;;;;;;4977236;28;20495;-69
2023/03/30 00:45:20;;;;;;;19.63;17.73;;;10.00;99.90;;;;;;4975354;28;20476;-68
2023/03/30 00:47:55;;;;;;;19.23;17.20;;;10.00;99.90;;;;;;4977892;28;20857;-69
2023/03/30 00:50:26;;;;;;;18.00;16.30;;;10.00;99.90;;;;;;4986348;28;20492;-70
2023/03/30 00:52:57;;;;;;;19.80;17.50;;;10.00;99.90;;;;;;4984266;28;20488;-68
2023/03/30 00:55:31;;;;;;;18.40;16.50;;;10.00;99.90;;;;;;4985206;28;20485;-67
2023/03/30 00:58:00;;;;;;;18.20;16.30;;;10.00;99.90;;;;;;4985382;28;20496;-69
2023/03/30 01:00:28;;;;;;;20.47;18.40;;;9.90;99.90;;;;;;4984835;28;20489;-71
2023/03/30 01:03:00;;;;;;;19.00;17.00;;;10.00;99.90;;;;;;4984129;28;20491;-68
2023/03/30 01:05:29;;;;;;;19.20;17.30;;;10.00;99.90;;;;;;4982353;28;20488;-69
2023/03/30 01:07:59;;;;;;;19.67;17.67;;;10.00;99.90;;;;;;4987065;28;20555;-68
2023/03/30 01:10:28;;;;;;;19.67;17.77;;;10.00;99.90;;;;;;4979688;28;20496;-68
2023/03/30 01:12:56;;;;;;;19.67;17.80;;;10.00;99.90;;;;;;4979391;28;20501;-68
2023/03/30 01:15:24;;;;;;;19.70;17.70;;;9.90;99.90;;;;;;4979932;28;20536;-70
2023/03/30 01:18:09;;;;;;;18.37;16.67;;;9.90;99.90;;;;;;4985622;28;20949;-68
2023/03/30 01:21:24;;;;;;;17.90;16.17;;;9.90;99.90;;;;;;4981767;28;20500;-68
2023/03/30 01:24:14;;;;;;;19.40;17.40;;;9.90;99.90;;;;;;4982714;28;21072;-68
2023/03/30 01:26:54;;;;;;;19.93;17.90;;;9.90;99.90;;;;;;4983740;28;20480;-69
2023/03/30 01:29:40;;;;;;;19.03;17.03;;;9.90;99.90;;;;;;4983995;28;20502;-69
2023/03/30 01:32:54;;;;;;;20.60;18.40;;;9.90;99.90;;;;;;4984068;28;21118;-68
2023/03/30 01:35:52;;;;;;;18.10;16.27;;;9.90;99.90;;;;;;4985260;28;20471;-68
2023/03/30 01:38:50;;;;;;;18.13;16.33;;;9.90;99.90;;;;;;4975811;28;20523;-68
2023/03/30 01:41:29;;;;;;;21.47;17.17;;;9.90;99.90;;;;;;4953903;28;20489;-69
2023/03/30 01:44:02;;;;;;;18.97;16.87;;;9.90;99.90;;;;;;4979843;28;20496;-68
2023/03/30 01:46:33;;;;;;;17.80;15.90;;;9.90;99.90;;;;;;4981601;28;20504;-68
2023/03/30 01:49:10;;;;;;;18.77;16.87;;;9.90;99.90;;;;;;4985366;28;20531;-70
2023/03/30 01:51:44;;;;;;;19.73;17.53;;;9.90;99.90;;;;;;4984147;28;20501;-68
2023/03/30 01:54:18;;;;;;;18.37;16.43;;;9.90;99.90;;;;;;4983277;28;20895;-70
2023/03/30 01:56:51;;;;;;;18.20;16.40;;;9.90;99.90;;;;;;4985172;28;20485;-71
2023/03/30 01:59:25;;;;;;;18.60;16.60;;;9.90;99.90;;;;;;4979006;28;20481;-68
2023/03/30 02:02:01;;;;;;;19.07;16.87;;;9.90;99.90;;;;;;4983406;28;20527;-69
2023/03/30 02:04:31;;;;;;;19.03;16.50;;;9.90;99.90;;;;;;4982537;28;20469;-68
2023/03/30 02:07:03;;;;;;;18.17;16.27;;;9.80;99.90;;;;;;4985163;28;20853;-69
2023/03/30 02:09:33;;;;;;;17.70;15.90;;;9.80;99.90;;;;;;4986060;28;20473;-69
2023/03/30 02:12:04;;;;;;;18.60;16.60;;;9.80;99.90;;;;;;4981793;28;20488;-69
2023/03/30 02:14:34;;;;;;;18.83;16.83;;;9.80;99.90;;;;;;4988580;28;20527;-69
2023/03/30 02:17:08;;;;;;;19.80;17.80;;;9.80;99.90;;;;;;4985324;28;20504;-68
2023/03/30 02:19:36;;;;;;;19.47;17.47;;;9.80;99.90;;;;;;4988001;28;20465;-69
2023/03/30 02:22:05;;;;;;;18.10;16.30;;;9.80;99.90;;;;;;4979527;28;21029;-70
2023/03/30 02:24:34;;;;;;;19.60;17.50;;;9.80;99.90;;;;;;4987017;28;20846;-69
2023/03/30 02:27:04;;;;;;;18.23;16.33;;;9.80;99.90;;;;;;4985154;28;20851;-69
2023/03/30 02:29:35;;;;;;;19.63;17.60;;;9.80;99.90;;;;;;4985848;28;20477;-69
2023/03/30 02:32:03;;;;;;;18.23;16.33;;;9.80;99.90;;;;;;4986380;28;20473;-69
2023/03/30 02:34:49;;;;;;;18.93;16.97;;;9.80;99.90;;;;;;4986756;28;20476;-68
2023/03/30 02:37:29;;;;;;;19.57;17.53;;;9.70;99.90;;;;;;4983804;28;20472;-68
2023/03/30 02:40:11;;;;;;;19.00;17.10;;;9.70;99.90;;;;;;4987507;28;21155;-68
2023/03/30 02:42:53;;;;;;;18.80;16.90;;;9.70;99.90;;;;;;4981954;28;20492;-69
2023/03/30 02:45:31;;;;;;;20.07;17.30;;;9.70;99.90;;;;;;4987578;28;20480;-68
2023/03/30 02:48:12;;;;;;;18.60;16.67;;;9.70;99.90;;;;;;4990971;28;20472;-69
2023/03/30 02:50:46;;;;;;;20.70;17.20;;;9.70;99.90;;;;;;4987567;28;21017;-69
2023/03/30 02:53:23;;;;;;;19.87;17.80;;;9.70;99.90;;;;;;4988906;28;20481;-69
2023/03/30 02:56:02;;;;;;;20.40;18.30;;;9.70;99.90;;;;;;4982447;28;20472;-70
2023/03/30 02:58:41;;;;;;;20.20;17.93;;;9.70;99.90;;;;;;4980507;28;21025;-68
2023/03/30 03:01:14;;;;;;;18.80;16.77;;;9.70;99.90;;;;;;4988826;28;20499;-68
2023/03/30 03:03:45;;;;;;;20.87;18.77;;;9.70;99.90;;;;;;4980644;28;20489;-71
2023/03/30 03:06:15;;;;;;;19.53;17.40;;;9.70;99.90;;;;;;4988411;28;20527;-69
2023/03/30 03:08:46;;;;;;;19.37;17.03;;;9.70;99.90;;;;;;4987020;28;20480;-69
2023/03/30 03:11:14;;;;;;;18.47;16.23;;;9.60;99.90;;;;;;4987301;28;20500;-69
2023/03/30 03:13:43;;;;;;;20.70;18.57;;;9.60;99.90;;;;;;4985414;28;20493;-70
2023/03/30 03:16:12;;;;;;;19.43;17.20;;;9.60;99.90;;;;;;4983428;28;20480;-68
2023/03/30 03:18:40;;;;;;;20.40;18.30;;;9.60;99.90;;;;;;4987760;28;20998;-70
2023/03/30 03:21:09;;;;;;;18.43;16.43;;;9.60;99.90;;;;;;4983426;28;20567;-68
2023/03/30 03:23:38;;;;;;;19.97;17.97;;;9.60;99.90;;;;;;4987843;28;20485;-70
2023/03/30 03:26:06;;;;;;;20.00;17.87;;;9.60;99.90;;;;;;4988252;28;20479;-69
2023/03/30 03:28:34;;;;;;;18.67;16.57;;;9.60;99.90;;;;;;4982103;28;20477;-68
2023/03/30 03:31:04;;;;;;;20.63;18.57;;;9.60;99.90;;;;;;4985391;28;21064;-69
2023/03/30 03:33:34;;;;;;;19.40;17.40;;;9.60;99.90;;;;;;4984533;28;20862;-69
2023/03/30 03:36:02;;;;;;;18.97;17.07;;;9.60;99.90;;;;;;4984730;28;20473;-69
2023/03/30 03:38:30;;;;;;;19.60;17.60;;;9.50;99.90;;;;;;4985160;28;20476;-68
2023/03/30 03:40:59;;;;;;;19.67;17.57;;;9.50;99.90;;;;;;4984754;28;20503;-68
2023/03/30 03:43:27;;;;;;;18.03;16.17;;;9.50;99.90;;;;;;4984055;28;20572;-69
2023/03/30 03:45:55;;;;;;;19.13;17.10;;;9.50;99.90;;;;;;4986450;28;20484;-68
2023/03/30 03:48:25;;;;;;;19.30;17.17;;;9.50;99.90;;;;;;4978438;28;20535;-68
2023/03/30 03:50:54;;;;;;;19.20;17.20;;;9.50;99.90;;;;;;4985812;28;21032;-70
2023/03/30 03:53:24;;;;;;;20.40;17.43;;;9.50;99.90;;;;;;4985556;28;20485;-68
2023/03/30 03:55:53;;;;;;;20.50;18.10;;;9.50;99.90;;;;;;4984601;28;20485;-69
2023/03/30 03:58:21;;;;;;;18.97;16.90;;;9.50;99.90;;;;;;4985861;28;20492;-69
2023/03/30 04:00:50;;;;;;;19.57;17.07;;;9.50;99.90;;;;;;4982867;28;20868;-67
2023/03/30 04:03:19;;;;;;;19.53;17.53;;;9.50;99.90;;;;;;4982873;28;20495;-68
2023/03/30 04:05:48;;;;;;;20.27;18.07;;;9.50;99.90;;;;;;4987732;28;20479;-69
2023/03/30 04:08:16;;;;;;;20.67;18.57;;;9.50;99.90;;;;;;4983352;28;20962;-69
2023/03/30 04:10:44;;;;;;;20.13;18.10;;;9.50;99.90;;;;;;4986126;28;20496;-69
2023/03/30 04:13:12;;;;;;;20.33;18.13;;;9.50;99.90;;;;;;4968449;28;20489;-69
2023/03/30 04:15:40;;;;;;;21.43;19.13;;;9.50;99.90;;;;;;4979814;28;20481;-69
2023/03/30 04:18:08;;;;;;;18.50;16.70;;;9.40;99.90;;;;;;4972267;28;21348;-68
2023/03/30 04:20:36;;;;;;;19.73;16.80;;;9.50;99.90;;;;;;4978605;28;20520;-69
2023/03/30 04:23:08;;;;;;;19.67;17.53;;;9.50;99.90;;;;;;4983663;28;20496;-68
2023/03/30 04:25:38;;;;;;;20.80;18.63;;;9.50;99.90;;;;;;4979726;28;20883;-68
2023/03/30 04:28:06;;;;;;;19.10;17.00;;;9.50;99.90;;;;;;4975782;28;20484;-68
2023/03/30 04:30:34;;;;;;;19.10;17.10;;;9.50;99.90;;;;;;4984381;28;20489;-68
2023/03/30 04:33:03;;;;;;;18.90;17.03;;;9.50;99.90;;;;;;4979951;28;21250;-68
2023/03/30 04:35:33;;;;;;;20.20;17.63;;;9.50;99.90;;;;;;4987124;28;20477;-69
2023/03/30 04:38:01;;;;;;;18.83;17.00;;;9.50;99.90;;;;;;4982818;28;20509;-69
2023/03/30 04:40:31;;;;;;;18.33;16.53;;;9.50;99.90;;;;;;4980095;28;20504;-69
2023/03/30 04:43:02;;;;;;;18.47;16.57;;;9.50;99.90;;;;;;4980867;28;20873;-70
2023/03/30 04:45:30;;;;;;;18.33;16.13;;;9.50;99.90;;;;;;4977544;28;20473;-70
2023/03/30 04:47:58;;;;;;;19.03;17.03;;;9.50;99.90;;;;;;4980265;28;21196;-69
2023/03/30 04:50:27;;;;;;;19.30;17.20;;;9.50;99.90;;;;;;4975565;28;20504;-70
2023/03/30 04:52:54;;;;;;;18.37;16.30;;;9.50;99.90;;;;;;4975107;28;20492;-69
2023/03/30 04:55:22;;;;;;;17.33;15.53;;;9.50;99.90;;;;;;4975907;28;21036;-70
2023/03/30 04:57:52;;;;;;;18.20;16.40;;;9.50;99.90;;;;;;4977588;28;21159;-69
2023/03/30 05:00:21;;;;;;;18.60;15.30;;;9.50;99.90;;;;;;4981719;28;20505;-71
2023/03/30 05:02:49;;;;;;;18.30;16.40;;;9.50;99.90;;;;;;4979210;28;20522;-70
2023/03/30 05:05:17;;;;;;;17.50;15.80;;;9.50;99.90;;;;;;4982698;28;20532;-70
2023/03/30 05:07:45;;;;;;;18.30;16.50;;;9.50;99.90;;;;;;4982860;28;20477;-69
2023/03/30 05:10:13;;;;;;;18.33;16.33;;;9.50;99.90;;;;;;4980453;28;20833;-70
2023/03/30 05:12:41;;;;;;;18.77;15.73;;;9.50;99.90;;;;;;4968028;28;20702;-69
2023/03/30 05:15:11;;;;;;;18.30;16.50;;;9.50;99.90;;;;;;4984783;28;20500;-69
2023/03/30 05:17:39;;;;;;;17.60;15.83;;;9.50;99.90;;;;;;4980979;28;20477;-70
2023/03/30 05:20:08;;;;;;;18.30;16.40;;;9.50;99.90;;;;;;4982248;28;20488;-68
2023/03/30 05:22:37;;;;;;;18.43;16.13;;;9.50;99.90;;;;;;4976027;28;20759;-68
2023/03/30 05:25:06;;;;;;;17.40;15.60;;;9.60;99.90;;;;;;4968656;28;20474;-69
2023/03/30 05:27:34;;;;;;;17.87;15.20;;;9.60;99.90;;;;;;4983122;28;20971;-68
2023/03/30 05:30:03;;;;;;;17.10;15.30;;;9.60;99.90;;;;;;4977621;28;20489;-68
2023/03/30 05:32:32;;;;;;;17.87;16.07;;;9.60;99.90;;;;;;4973352;28;20504;-71
2023/03/30 05:35:00;;;;;;;17.20;15.30;;;9.60;99.90;;;;;;4975131;28;20539;-68
2023/03/30 05:37:28;;;;;;;17.63;15.80;;;9.60;99.90;;;;;;4976546;28;20477;-69
2023/03/30 05:39:56;;;;;;;17.53;15.67;;;9.60;99.90;;;;;;4977851;28;20985;-71
2023/03/30 05:42:24;;;;;;;18.97;15.53;;;9.60;99.90;;;;;;4985588;28;20484;-70
2023/03/30 05:44:52;;;;;;;17.50;15.70;;;9.60;99.90;;;;;;4978731;28;20470;-69
2023/03/30 05:47:20;;;;;;;17.90;16.20;;;9.60;99.90;;;;;;4977969;28;20489;-68
2023/03/30 05:49:50;;;;;;;17.50;15.67;;;9.70;99.90;;;;;;4976546;28;20580;-68
2023/03/30 05:52:18;;;;;;;19.40;15.73;;;9.70;99.90;;;;;;4978775;28;20496;-68
2023/03/30 05:54:46;;;;;;;15.33;13.63;;;9.70;99.90;;;;;;4987418;28;20488;-68
2023/03/30 05:57:14;;;;;;;17.20;15.40;;;9.70;99.90;;;;;;4986235;28;20469;-68
2023/03/30 05:59:42;;;;;;;15.40;13.90;;;9.70;99.90;;;;;;4982870;28;20481;-68
2023/03/30 06:02:11;;;;;;;15.67;14.00;;;9.70;99.90;;;;;;4985015;28;20485;-70
2023/03/30 06:04:39;;;;;;;17.53;14.90;;;9.80;99.90;;;;;;4975639;28;20465;-70
2023/03/30 06:07:09;;;;;;;16.43;14.73;;;9.80;99.90;;;;;;4986235;28;20542;-70
2023/03/30 06:09:37;;;;;;;14.20;12.80;;;9.80;99.90;;;;;;4983519;28;20483;-69
2023/03/30 06:12:05;;;;;;;13.73;12.30;;;9.80;99.90;;;;;;4972939;28;20485;-68
2023/03/30 06:14:33;;;;;;;13.27;11.90;;;9.90;99.90;;;;;;4985542;28;20485;-69
2023/03/30 06:17:01;;;;;;;12.90;11.47;;;9.90;99.90;;;;;;4979843;28;20469;-69
2023/03/30 06:19:30;;;;;;;11.80;10.70;;;10.00;99.90;;;;;;4985584;28;20469;-69
2023/03/30 06:21:57;;;;;;;12.80;11.20;;;10.00;99.90;;;;;;4984732;28;20481;-69
2023/03/30 06:24:27;;;;;;;11.27;10.03;;;10.00;99.90;;;;;;4980144;28;20775;-68
2023/03/30 06:26:55;;;;;;;12.90;11.60;;;10.10;99.90;;;;;;4988495;28;20483;-69
2023/03/30 06:29:23;;;;;;;12.83;11.37;;;10.10;99.90;;;;;;4984028;28;20469;-68
2023/03/30 06:31:52;;;;;;;12.77;10.73;;;10.20;99.90;;;;;;4982584;28;20492;-68
2023/03/30 06:34:20;;;;;;;13.17;11.20;;;10.30;99.90;;;;;;4986609;28;20469;-69
2023/03/30 06:36:49;;;;;;;13.03;11.80;;;10.30;99.90;;;;;;4982733;28;20468;-69
2023/03/30 06:39:17;;;;;;;14.83;11.33;;;10.40;99.90;;;;;;4982862;28;20481;-69
2023/03/30 06:41:46;;;;;;;11.40;10.30;;;10.40;99.90;;;;;;4984468;28;21036;-68
2023/03/30 06:44:14;;;;;;;11.83;10.70;;;10.40;99.90;;;;;;4982039;28;20579;-71
2023/03/30 06:46:42;;;;;;;13.07;10.90;;;10.50;99.90;;;;;;4984397;28;20572;-69
2023/03/30 06:49:12;;;;;;;12.33;10.77;;;10.60;99.90;;;;;;4983871;28;20485;-69
2023/03/30 06:51:40;;;;;;;14.53;11.37;;;10.60;99.90;;;;;;4983979;28;20488;-68
2023/03/30 06:54:08;;;;;;;11.87;10.73;;;10.60;99.90;;;;;;4986985;28;20556;-68
2023/03/30 06:56:36;;;;;;;12.87;11.77;;;10.70;99.90;;;;;;4984053;28;20496;-69
2023/03/30 06:59:05;;;;;;;12.53;11.33;;;10.70;99.90;;;;;;4988428;28;20477;-69
2023/03/30 07:01:33;;;;;;;15.77;11.83;;;10.80;99.90;;;;;;4987372;28;20517;-69
2023/03/30 07:04:02;;;;;;;11.77;10.57;;;10.90;99.90;;;;;;4984513;28;20646;-69
2023/03/30 07:06:30;;;;;;;12.47;11.27;;;10.90;99.90;;;;;;4990029;28;20469;-69
2023/03/30 07:08:58;;;;;;;13.27;11.70;;;11.00;99.90;;;;;;4987097;28;21114;-69
2023/03/30 07:11:26;;;;;;;12.40;11.10;;;11.00;99.90;;;;;;4983073;28;20487;-71
2023/03/30 07:13:57;;;;;;;11.60;10.50;;;11.00;99.90;;;;;;4988139;28;20496;-71
2023/03/30 07:16:26;;;;;;;12.73;11.43;;;11.10;99.90;;;;;;4984737;28;20504;-70
2023/03/30 07:18:54;;;;;;;12.37;11.10;;;11.20;99.90;;;;;;4986581;28;20469;-68
2023/03/30 07:21:22;;;;;;;11.07;9.83;;;11.20;99.90;;;;;;4986690;28;20488;-70
2023/03/30 07:23:50;;;;;;;15.83;10.00;;;11.20;99.90;;;;;;4979989;28;20518;-70
2023/03/30 07:26:18;;;;;;;10.53;8.63;;;11.30;99.90;;;;;;4989457;28;20473;-70
2023/03/30 07:28:46;;;;;;;11.20;9.10;;;11.30;99.90;;;;;;4989707;28;20473;-71
2023/03/30 07:31:15;;;;;;;9.40;8.47;;;11.30;99.90;;;;;;4980220;28;21138;-70
2023/03/30 07:33:45;;;;;;;10.67;7.23;;;11.30;99.90;;;;;;4986331;28;20492;-70
2023/03/30 07:36:13;;;;;;;8.40;7.60;;;11.40;99.90;;;;;;4987898;28;20499;-69
2023/03/30 07:38:41;;;;;;;9.70;7.23;;;11.40;99.90;;;;;;4987086;28;20477;-70
2023/03/30 07:41:12;;;;;;;8.60;7.50;;;11.50;99.90;;;;;;4987312;28;20512;-70
2023/03/30 07:43:41;;;;;;;7.33;6.63;;;11.50;99.90;;;;;;4981662;28;21109;-70
2023/03/30 07:46:10;;;;;;;8.87;6.67;;;11.60;99.90;;;;;;4986466;28;20998;-70
2023/03/30 07:48:38;;;;;;;9.50;7.10;;;11.60;99.90;;;;;;4988901;28;20859;-70
2023/03/30 07:51:09;;;;;;;7.17;6.47;;;11.60;99.90;;;;;;4981227;28;20548;-70
2023/03/30 07:53:38;;;;;;;7.80;7.10;;;11.70;99.90;;;;;;4984034;28;21026;-70
2023/03/30 07:56:07;;;;;;;8.10;7.30;;;11.70;99.90;;;;;;4985383;28;20493;-69
2023/03/30 07:58:35;;;;;;;7.90;7.10;;;11.70;99.90;;;;;;4986251;28;20845;-69
2023/03/30 08:01:03;;;;;;;7.53;5.97;;;11.80;99.90;;;;;;4987317;28;20493;-70
2023/03/30 08:03:32;;;;;;;7.60;6.30;;;11.80;99.90;;;;;;4980471;28;20504;-70
2023/03/30 08:06:04;;;;;;;7.60;6.90;;;11.90;99.90;;;;;;4983565;28;20527;-70
2023/03/30 08:08:34;;;;;;;9.33;7.30;;;11.90;99.90;;;;;;4989496;28;20898;-71
2023/03/30 08:11:02;;;;;;;10.93;6.70;;;11.90;99.90;;;;;;4986231;28;20499;-70
2023/03/30 08:13:31;;;;;;;8.63;6.67;;;12.00;99.90;;;;;;4981026;28;20481;-70
2023/03/30 08:16:00;;;;;;;7.57;6.67;;;12.00;99.90;;;;;;4986560;28;20495;-70
2023/03/30 08:18:28;;;;;;;7.10;5.87;;;12.00;99.90;;;;;;4986390;28;20483;-70
2023/03/30 08:20:56;;;;;;;6.70;6.10;;;12.00;99.90;;;;;;4987085;28;20551;-70
2023/03/30 08:23:24;;;;;;;11.43;6.27;;;12.10;99.90;;;;;;4984002;28;20489;-69
2023/03/30 08:25:56;;;;;;;6.77;6.13;;;12.10;99.90;;;;;;4983614;28;20461;-70
2023/03/30 08:28:25;;;;;;;7.00;6.30;;;12.20;99.90;;;;;;4985908;28;20469;-70
2023/03/30 08:30:53;;;;;;;7.80;5.80;;;12.30;99.90;;;;;;4988524;28;20504;-70
2023/03/30 08:33:21;;;;;;;8.27;6.07;;;12.30;99.90;;;;;;4977681;28;21312;-70
2023/03/30 08:35:50;;;;;;;5.93;5.30;;;12.40;99.90;;;;;;4988911;28;20497;-70
2023/03/30 08:38:18;;;;;;;6.23;5.73;;;12.50;99.90;;;;;;4986118;28;21127;-69
2023/03/30 08:40:48;;;;;;;6.03;5.20;;;12.50;99.90;;;;;;4985386;28;20505;-70
2023/03/30 08:43:42;;;;;;;7.03;6.33;;;12.50;99.90;;;;;;4984896;28;20492;-69
2023/03/30 08:46:14;;;;;;;8.40;6.53;;;12.60;99.90;;;;;;4982193;28;20465;-70
2023/03/30 08:48:43;;;;;;;7.00;5.23;;;12.60;99.90;;;;;;4986166;28;20480;-70
2023/03/30 08:51:20;;;;;;;5.97;5.37;;;12.60;99.90;;;;;;4986366;28;20515;-70
2023/03/30 08:53:52;;;;;;;5.97;5.37;;;12.60;99.90;;;;;;4983212;28;20968;-70
2023/03/30 08:56:23;;;;;;;8.47;5.97;;;12.60;99.90;;;;;;4985610;28;20497;-69
2023/03/30 08:59:02;;;;;;;6.30;5.70;;;12.60;99.90;;;;;;4982607;28;20477;-70
2023/03/30 09:01:42;;;;;;;6.50;5.87;;;12.60;99.90;;;;;;4985425;28;20488;-70
2023/03/30 09:04:21;;;;;;;7.50;6.20;;;12.70;99.90;;;;;;4981828;28;20960;-70
2023/03/30 09:06:52;;;;;;;7.60;5.60;;;12.80;99.90;;;;;;4979354;28;20464;-70
2023/03/30 09:09:24;;;;;;;6.57;5.70;;;12.90;99.90;;;;;;4988783;28;20469;-70
2023/03/30 09:11:59;;;;;;;7.30;5.63;;;13.10;99.90;;;;;;4986196;28;20508;-71
2023/03/30 09:14:37;;;;;;;7.90;5.40;;;13.20;99.90;;;;;;4982487;28;20473;-70
2023/03/30 09:17:11;;;;;;;5.83;5.07;;;13.20;99.90;;;;;;4982472;28;21029;-69
2023/03/30 09:19:47;;;;;;;7.20;4.87;;;13.30;99.90;;;;;;4987883;28;20477;-70
2023/03/30 09:22:17;;;;;;;6.63;5.90;;;13.40;99.90;;;;;;4984816;28;20505;-69
2023/03/30 09:24:45;;;;;;;5.77;5.17;;;13.50;99.90;;;;;;4977481;28;20477;-70
2023/03/30 09:27:18;;;;;;;5.10;4.70;;;13.50;99.90;;;;;;4984766;28;20461;-70
2023/03/30 09:29:50;;;;;;;6.43;5.30;;;13.60;99.90;;;;;;4983913;28;20481;-70
2023/03/30 09:32:27;;;;;;;6.37;5.40;;;13.70;99.90;;;;;;4981979;28;20962;-70
2023/03/30 09:35:00;;;;;;;5.67;5.07;;;13.80;99.90;;;;;;4984627;28;20828;-69
2023/03/30 09:37:28;;;;;;;7.80;5.80;;;13.90;99.90;;;;;;4980928;28;20878;-70
2023/03/30 09:39:57;;;;;;;6.13;5.53;;;13.90;99.90;;;;;;4988670;28;20513;-70
2023/03/30 09:42:33;;;;;;;7.07;5.40;;;13.80;99.90;;;;;;4983836;28;20473;-70
2023/03/30 09:45:11;;;;;;;8.53;5.73;;;13.80;99.90;;;;;;4985050;28;20475;-69
2023/03/30 09:47:41;;;;;;;6.43;5.70;;;13.70;99.90;;;;;;4985752;28;20465;-70
2023/03/30 09:50:11;;;;;;;7.27;5.97;;;13.70;99.90;;;;;;4984285;28;20927;-69
2023/03/30 09:52:40;;;;;;;6.50;5.83;;;13.70;99.90;;;;;;4986298;28;20487;-70
2023/03/30 09:55:29;;;;;;;6.10;5.60;;;13.80;99.90;;;;;;4988148;28;21153;-70
2023/03/30 09:58:12;;;;;;;6.57;6.00;;;13.80;99.90;;;;;;4982291;28;20504;-70
2023/03/30 10:00:42;;;;;;;6.57;5.80;;;13.80;99.90;;;;;;4985812;28;21069;-69
2023/03/30 10:03:20;;;;;;;5.60;5.07;;;13.80;99.90;;;;;;4981147;28;20489;-70
2023/03/30 10:06:06;;;;;;;6.13;5.63;;;13.90;99.90;;;;;;4986950;28;20473;-70
2023/03/30 10:08:43;;;;;;;5.73;5.20;;;13.90;99.90;;;;;;4988988;28;20958;-70
2023/03/30 10:11:11;;;;;;;5.00;4.60;;;14.00;99.90;;;;;;4982621;28;20488;-70
2023/03/30 10:13:42;;;;;;;7.73;4.27;;;14.10;99.90;;;;;;4983263;28;20493;-69
2023/03/30 10:16:23;;;;;;;7.13;4.80;;;14.30;99.90;;;;;;4983742;28;20465;-69
2023/03/30 10:18:54;;;;;;;8.53;4.67;;;14.40;99.90;;;;;;4986513;28;20564;-69
2023/03/30 10:21:26;;;;;;;6.10;4.60;;;14.60;99.90;;;;;;4986281;28;20496;-70
2023/03/30 10:24:06;;;;;;;4.53;4.03;;;14.60;99.90;;;;;;4983098;28;20492;-69
2023/03/30 10:26:37;;;;;;;5.10;4.60;;;14.60;99.90;;;;;;4985967;28;20464;-68
2023/03/30 10:29:09;;;;;;;4.67;3.73;;;14.60;99.90;;;;;;4985511;28;20479;-68
2023/03/30 10:31:42;;;;;;;4.20;3.43;;;14.50;99.90;;;;;;4984190;28;20596;-69
2023/03/30 10:34:17;;;;;;;6.00;4.00;;;14.60;99.90;;;;;;4988855;28;20465;-70
2023/03/30 10:36:47;;;;;;;4.43;3.30;;;14.60;99.90;;;;;;4986178;28;21169;-69
2023/03/30 10:39:23;;;;;;;4.93;3.20;;;14.50;99.90;;;;;;4986989;28;20480;-69
2023/03/30 10:41:53;;;;;;;3.90;3.50;;;14.60;99.90;;;;;;4988339;28;20511;-69
2023/03/30 10:44:25;;;;;;;4.70;3.47;;;14.60;99.90;;;;;;4985169;28;20479;-67
2023/03/30 10:47:06;;;;;;;4.00;3.33;;;14.70;99.90;;;;;;4988038;28;20546;-69
2023/03/30 10:49:44;;;;;;;4.23;3.53;;;14.80;99.90;;;;;;4987081;28;20527;-70
2023/03/30 10:52:21;;;;;;;6.10;3.40;;;14.80;99.90;;;;;;4984014;28;20484;-70
2023/03/30 10:54:55;;;;;;;5.27;3.73;;;14.80;99.90;;;;;;4986235;28;21079;-70
2023/03/30 10:57:30;;;;;;;4.03;3.20;;;14.80;99.90;;;;;;4981045;28;20653;-69
2023/03/30 11:00:22;;;;;;;3.67;3.07;;;14.70;99.90;;;;;;4990524;28;20620;-69
2023/03/30 11:02:59;;;;;;;5.20;4.10;;;14.70;99.90;;;;;;4988885;28;21029;-69
2023/03/30 11:05:31;;;;;;;4.63;4.10;;;14.70;99.90;;;;;;4984157;28;20472;-70
2023/03/30 11:08:02;;;;;;;4.80;4.30;;;14.60;99.90;;;;;;4986205;28;20536;-69
2023/03/30 11:10:31;;;;;;;5.40;4.50;;;14.60;99.90;;;;;;4987388;28;20492;-70
2023/03/30 11:13:02;;;;;;;4.80;4.40;;;14.60;99.90;;;;;;4987937;28;20609;-69
2023/03/30 11:15:35;;;;;;;5.47;4.97;;;14.60;99.90;;;;;;4983663;28;20499;-68
2023/03/30 11:18:13;;;;;;;4.77;4.20;;;14.70;99.90;;;;;;4989027;28;20497;-68
2023/03/30 11:20:47;;;;;;;5.00;4.57;;;14.80;99.90;;;;;;4989433;28;20578;-68
2023/03/30 11:23:23;;;;;;;4.83;4.40;;;14.90;99.90;;;;;;4984669;28;20504;-68
2023/03/30 11:26:00;;;;;;;5.17;3.67;;;15.10;99.90;;;;;;4988911;28;20468;-68
2023/03/30 11:28:49;;;;;;;7.00;4.00;;;15.30;99.90;;;;;;4989086;28;20998;-68
2023/03/30 11:31:31;;;;;;;3.63;2.50;;;15.40;99.90;;;;;;4975876;28;20489;-68
2023/03/30 11:34:08;;;;;;;4.27;2.50;;;15.60;99.90;;;;;;4987001;28;21029;-68
2023/03/30 11:36:42;;;;;;;2.97;2.20;;;15.70;99.90;;;;;;4985443;28;20473;-68
2023/03/30 11:39:15;;;;;;;5.20;2.33;;;15.80;99.90;;;;;;4986641;28;20489;-68
2023/03/30 11:42:07;;;;;;;3.87;2.00;;;15.90;99.90;;;;;;4984540;28;20539;-68
2023/03/30 11:44:36;;;;;;;2.30;1.83;;;16.10;99.90;;;;;;4985311;28;20473;-68
2023/03/30 11:47:24;;;;;;;4.27;1.60;;;16.20;99.90;;;;;;4987437;28;20470;-68
2023/03/30 11:50:12;;;;;;;3.40;1.60;;;16.30;99.90;;;;;;4985150;28;20990;-70
2023/03/30 11:52:47;;;;;;;6.03;1.97;;;16.40;99.90;;;;;;4987836;28;20489;-68
2023/03/30 11:55:28;;;;;;;4.70;2.10;;;16.40;99.90;;;;;;4986372;28;20472;-67
2023/03/30 11:58:07;;;;;;;5.83;2.30;;;16.40;99.90;;;;;;4982029;28;20935;-68
2023/03/30 12:00:48;;;;;;;5.07;1.87;;;16.30;99.90;;;;;;4983534;28;20488;-70
2023/03/30 12:03:29;;;;;;;3.83;1.70;;;16.20;99.90;;;;;;4982740;28;20493;-68
2023/03/30 12:06:10;;;;;;;6.40;2.20;;;16.10;99.90;;;;;;4986535;28;20484;-68
2023/03/30 12:08:58;;;;;;;4.47;1.80;;;15.90;99.90;;;;;;4984623;28;20465;-68
2023/03/30 12:11:34;;;;;;;5.80;2.33;;;15.80;99.90;;;;;;4971550;28;20497;-66
2023/03/30 12:14:03;;;;;;;8.27;2.63;;;15.60;99.90;;;;;;4975811;28;20876;-68
2023/03/30 12:16:40;;;;;;;4.83;2.10;;;15.50;99.90;;;;;;4984603;28;20473;-68
2023/03/30 12:19:13;;;;;;;3.90;2.30;;;15.30;99.90;;;;;;4982214;28;21067;-70
2023/03/30 12:21:52;;;;;;;2.83;1.97;;;15.00;99.90;;;;;;4985367;28;21036;-69
2023/03/30 12:24:27;;;;;;;3.53;2.37;;;14.60;99.90;;;;;;4982291;28;20484;-68
2023/03/30 12:26:56;;;;;;;5.40;2.30;;;14.30;99.90;;;;;;4983378;28;20488;-68
2023/03/30 12:29:53;;;;;;;6.43;2.47;;;14.20;99.90;;;;;;4984322;28;20548;-67
2023/03/30 12:32:25;;;;;;;5.20;2.10;;;14.00;99.90;;;;;;4979933;28;20485;-68
2023/03/30 12:34:57;;;;;;;5.63;2.63;;;13.90;99.90;;;;;;4982317;28;21078;-68
2023/03/30 12:37:33;;;;;;;5.00;2.47;;;13.80;99.90;;;;;;4976217;28;20481;-69
2023/03/30 12:40:09;;;;;;;7.20;2.90;;;13.80;99.90;;;;;;4983002;28;20496;-68
2023/03/30 12:42:45;;;;;;;5.60;2.40;;;14.00;99.90;;;;;;4987011;28;20485;-68
2023/03/30 12:45:31;;;;;;;5.17;2.43;;;14.40;99.90;;;;;;4979759;28;20480;-68
2023/03/30 12:48:25;;;;;;;3.73;2.13;;;14.80;99.90;;;;;;4978954;28;20591;-68
2023/03/30 12:51:03;;;;;;;6.47;2.43;;;15.30;99.90;;;;;;4977171;28;20524;-68
2023/03/30 12:54:01;;;;;;;6.00;2.47;;;15.70;99.90;;;;;;4984308;28;21056;-68
2023/03/30 12:56:37;;;;;;;7.40;2.20;;;16.00;99.90;;;;;;4986436;28;20484;-70
2023/03/30 12:59:28;;;;;;;4.17;2.17;;;16.00;99.90;;;;;;4980238;28;22957;-69
2023/03/30 13:02:25;;;;;;;5.10;2.60;;;15.90;99.90;;;;;;4985981;28;20509;-68
2023/03/30 13:04:53;;;;;;;6.43;3.03;;;15.70;99.90;;;;;;4983754;28;20484;-68